sensor_id;sensor_type;location;lat;lon;timestamp;P1;durP1;ratioP1;P2;durP2;ratioP2
61358;SDS011;47228;46.762;23.598;2022-11-21T00:01:24;9.10;;;5.50;;
61358;SDS011;47228;46.762;23.598;2022-11-21T00:03:54;8.70;;;5.50;;
61358;SDS011;47228;46.762;23.598;2022-11-21T00:06:21;7.60;;;5.80;;
61358;SDS011;47228;46.762;23.598;2022-11-21T00:08:50;11.10;;;5.50;;
61358;SDS011;47228;46.762;23.598;2022-11-21T00:11:18;8.00;;;6.00;;
61358;SDS011;47228;46.762;23.598;2022-11-21T00:13:46;8.70;;;5.90;;
61358;SDS011;47228;46.762;23.598;2022-11-21T00:16:14;8.00;;;5.80;;
61358;SDS011;47228;46.762;23.598;2022-11-21T00:18:43;9.60;;;5.90;;
61358;SDS011;47228;46.762;23.598;2022-11-21T00:21:12;10.30;;;6.10;;
61358;SDS011;47228;46.762;23.598;2022-11-21T00:23:44;8.50;;;5.80;;
61358;SDS011;47228;46.762;23.598;2022-11-21T00:26:13;8.40;;;5.90;;
61358;SDS011;47228;46.762;23.598;2022-11-21T00:28:43;8.40;;;5.60;;
61358;SDS011;47228;46.762;23.598;2022-11-21T00:31:19;8.10;;;5.40;;
61358;SDS011;47228;46.762;23.598;2022-11-21T00:33:48;7.30;;;5.30;;
61358;SDS011;47228;46.762;23.598;2022-11-21T00:36:16;7.80;;;4.90;;
61358;SDS011;47228;46.762;23.598;2022-11-21T00:38:44;7.40;;;5.00;;
61358;SDS011;47228;46.762;23.598;2022-11-21T00:41:12;7.20;;;4.90;;
61358;SDS011;47228;46.762;23.598;2022-11-21T00:43:40;6.50;;;4.80;;
61358;SDS011;47228;46.762;23.598;2022-11-21T00:46:08;6.90;;;4.80;;
61358;SDS011;47228;46.762;23.598;2022-11-21T00:48:36;6.60;;;4.50;;
61358;SDS011;47228;46.762;23.598;2022-11-21T00:51:04;6.20;;;4.10;;
61358;SDS011;47228;46.762;23.598;2022-11-21T00:53:32;7.60;;;4.90;;
61358;SDS011;47228;46.762;23.598;2022-11-21T00:56:00;5.80;;;4.10;;
61358;SDS011;47228;46.762;23.598;2022-11-21T00:58:28;4.60;;;3.40;;
61358;SDS011;47228;46.762;23.598;2022-11-21T01:01:03;5.40;;;3.70;;
61358;SDS011;47228;46.762;23.598;2022-11-21T01:03:33;4.80;;;3.10;;
61358;SDS011;47228;46.762;23.598;2022-11-21T01:06:03;4.80;;;3.20;;
61358;SDS011;47228;46.762;23.598;2022-11-21T01:08:33;4.80;;;3.40;;
61358;SDS011;47228;46.762;23.598;2022-11-21T01:11:06;6.30;;;3.60;;
61358;SDS011;47228;46.762;23.598;2022-11-21T01:13:36;4.90;;;3.40;;
61358;SDS011;47228;46.762;23.598;2022-11-21T01:16:05;5.50;;;3.40;;
61358;SDS011;47228;46.762;23.598;2022-11-21T01:18:35;5.70;;;3.20;;
61358;SDS011;47228;46.762;23.598;2022-11-21T01:21:05;5.60;;;3.40;;
61358;SDS011;47228;46.762;23.598;2022-11-21T01:23:35;4.40;;;3.30;;
61358;SDS011;47228;46.762;23.598;2022-11-21T01:26:03;5.00;;;3.70;;
61358;SDS011;47228;46.762;23.598;2022-11-21T01:28:32;7.20;;;4.10;;
61358;SDS011;47228;46.762;23.598;2022-11-21T01:31:08;5.90;;;4.10;;
61358;SDS011;47228;46.762;23.598;2022-11-21T01:33:37;6.20;;;4.10;;
61358;SDS011;47228;46.762;23.598;2022-11-21T01:36:10;7.30;;;4.20;;
61358;SDS011;47228;46.762;23.598;2022-11-21T01:38:58;5.60;;;3.90;;
61358;SDS011;47228;46.762;23.598;2022-11-21T01:41:32;8.70;;;3.90;;
61358;SDS011;47228;46.762;23.598;2022-11-21T01:44:08;4.90;;;3.40;;
61358;SDS011;47228;46.762;23.598;2022-11-21T01:46:47;6.60;;;2.80;;
61358;SDS011;47228;46.762;23.598;2022-11-21T01:49:17;4.80;;;2.60;;
61358;SDS011;47228;46.762;23.598;2022-11-21T01:51:56;5.10;;;3.50;;
61358;SDS011;47228;46.762;23.598;2022-11-21T01:54:30;5.90;;;3.20;;
61358;SDS011;47228;46.762;23.598;2022-11-21T01:59:49;2.60;;;2.30;;
61358;SDS011;47228;46.762;23.598;2022-11-21T02:02:35;3.90;;;2.60;;
61358;SDS011;47228;46.762;23.598;2022-11-21T02:05:07;3.60;;;2.60;;
61358;SDS011;47228;46.762;23.598;2022-11-21T02:07:39;4.10;;;2.40;;
61358;SDS011;47228;46.762;23.598;2022-11-21T02:10:09;3.20;;;2.40;;
61358;SDS011;47228;46.762;23.598;2022-11-21T02:12:43;3.10;;;2.40;;
61358;SDS011;47228;46.762;23.598;2022-11-21T02:15:16;4.10;;;2.00;;
61358;SDS011;47228;46.762;23.598;2022-11-21T02:17:45;2.90;;;2.30;;
61358;SDS011;47228;46.762;23.598;2022-11-21T02:20:17;4.70;;;2.40;;
61358;SDS011;47228;46.762;23.598;2022-11-21T02:25:18;2.40;;;2.20;;
61358;SDS011;47228;46.762;23.598;2022-11-21T02:27:49;2.30;;;2.10;;
61358;SDS011;47228;46.762;23.598;2022-11-21T02:30:21;2.50;;;2.30;;
61358;SDS011;47228;46.762;23.598;2022-11-21T02:32:50;2.80;;;2.00;;
61358;SDS011;47228;46.762;23.598;2022-11-21T02:35:18;2.10;;;1.80;;
61358;SDS011;47228;46.762;23.598;2022-11-21T02:37:47;3.00;;;1.80;;
61358;SDS011;47228;46.762;23.598;2022-11-21T02:40:47;2.50;;;1.80;;
61358;SDS011;47228;46.762;23.598;2022-11-21T02:45:45;3.90;;;1.70;;
61358;SDS011;47228;46.762;23.598;2022-11-21T02:48:13;2.70;;;1.80;;
61358;SDS011;47228;46.762;23.598;2022-11-21T02:50:43;2.10;;;1.90;;
61358;SDS011;47228;46.762;23.598;2022-11-21T02:53:13;1.80;;;1.60;;
61358;SDS011;47228;46.762;23.598;2022-11-21T02:55:44;1.70;;;1.60;;
61358;SDS011;47228;46.762;23.598;2022-11-21T02:58:12;4.10;;;1.70;;
61358;SDS011;47228;46.762;23.598;2022-11-21T03:00:40;1.40;;;1.30;;
61358;SDS011;47228;46.762;23.598;2022-11-21T03:03:09;1.90;;;1.50;;
61358;SDS011;47228;46.762;23.598;2022-11-21T03:05:38;2.50;;;1.50;;
61358;SDS011;47228;46.762;23.598;2022-11-21T03:08:06;1.60;;;1.50;;
61358;SDS011;47228;46.762;23.598;2022-11-21T03:10:34;2.90;;;1.80;;
61358;SDS011;47228;46.762;23.598;2022-11-21T03:13:03;2.10;;;1.50;;
61358;SDS011;47228;46.762;23.598;2022-11-21T03:15:31;1.50;;;1.40;;
61358;SDS011;47228;46.762;23.598;2022-11-21T03:18:00;1.40;;;1.30;;
61358;SDS011;47228;46.762;23.598;2022-11-21T03:20:30;1.50;;;1.40;;
61358;SDS011;47228;46.762;23.598;2022-11-21T03:22:59;4.30;;;1.30;;
61358;SDS011;47228;46.762;23.598;2022-11-21T03:25:27;1.30;;;1.20;;
61358;SDS011;47228;46.762;23.598;2022-11-21T03:27:55;1.30;;;1.20;;
61358;SDS011;47228;46.762;23.598;2022-11-21T03:30:24;1.50;;;1.40;;
61358;SDS011;47228;46.762;23.598;2022-11-21T03:32:54;1.20;;;1.20;;
61358;SDS011;47228;46.762;23.598;2022-11-21T03:35:23;1.00;;;1.00;;
61358;SDS011;47228;46.762;23.598;2022-11-21T03:37:52;1.40;;;1.30;;
61358;SDS011;47228;46.762;23.598;2022-11-21T03:40:20;1.50;;;1.40;;
61358;SDS011;47228;46.762;23.598;2022-11-21T03:42:48;2.00;;;1.20;;
61358;SDS011;47228;46.762;23.598;2022-11-21T03:45:16;1.40;;;1.30;;
61358;SDS011;47228;46.762;23.598;2022-11-21T03:47:44;1.50;;;1.40;;
61358;SDS011;47228;46.762;23.598;2022-11-21T03:50:12;1.80;;;1.40;;
61358;SDS011;47228;46.762;23.598;2022-11-21T03:52:41;1.60;;;1.50;;
61358;SDS011;47228;46.762;23.598;2022-11-21T03:55:09;2.50;;;1.60;;
61358;SDS011;47228;46.762;23.598;2022-11-21T03:57:37;2.10;;;1.50;;
61358;SDS011;47228;46.762;23.598;2022-11-21T04:00:06;1.40;;;1.40;;
61358;SDS011;47228;46.762;23.598;2022-11-21T04:02:34;1.30;;;1.20;;
61358;SDS011;47228;46.762;23.598;2022-11-21T04:05:02;1.50;;;1.20;;
61358;SDS011;47228;46.762;23.598;2022-11-21T04:07:30;1.40;;;1.30;;
61358;SDS011;47228;46.762;23.598;2022-11-21T04:09:58;2.00;;;1.30;;
61358;SDS011;47228;46.762;23.598;2022-11-21T04:12:26;2.60;;;1.40;;
61358;SDS011;47228;46.762;23.598;2022-11-21T04:14:54;1.70;;;1.50;;
61358;SDS011;47228;46.762;23.598;2022-11-21T04:17:22;1.60;;;1.50;;
61358;SDS011;47228;46.762;23.598;2022-11-21T04:19:50;2.10;;;1.60;;
61358;SDS011;47228;46.762;23.598;2022-11-21T04:22:17;1.70;;;1.40;;
61358;SDS011;47228;46.762;23.598;2022-11-21T04:24:45;1.30;;;1.20;;
61358;SDS011;47228;46.762;23.598;2022-11-21T04:27:13;1.60;;;1.50;;
61358;SDS011;47228;46.762;23.598;2022-11-21T04:29:41;2.00;;;1.50;;
61358;SDS011;47228;46.762;23.598;2022-11-21T12:37:47;3.80;;;2.50;;
61358;SDS011;47228;46.762;23.598;2022-11-21T12:43:19;4.30;;;2.80;;
61358;SDS011;47228;46.762;23.598;2022-11-21T12:46:25;8.20;;;2.70;;
61358;SDS011;47228;46.762;23.598;2022-11-21T12:52:03;3.50;;;2.40;;
61358;SDS011;47228;46.762;23.598;2022-11-21T12:57:35;4.90;;;2.90;;
61358;SDS011;47228;46.762;23.598;2022-11-21T13:05:43;5.70;;;3.20;;
61358;SDS011;47228;46.762;23.598;2022-11-21T13:08:17;5.80;;;3.50;;
61358;SDS011;47228;46.762;23.598;2022-11-21T13:10:55;4.90;;;3.50;;
61358;SDS011;47228;46.762;23.598;2022-11-21T13:13:50;4.50;;;3.40;;
61358;SDS011;47228;46.762;23.598;2022-11-21T13:16:29;5.10;;;3.30;;
61358;SDS011;47228;46.762;23.598;2022-11-21T13:21:47;4.80;;;3.50;;
61358;SDS011;47228;46.762;23.598;2022-11-21T13:32:39;8.80;;;5.30;;
61358;SDS011;47228;46.762;23.598;2022-11-21T13:45:56;4.30;;;2.90;;
61358;SDS011;47228;46.762;23.598;2022-11-21T13:51:18;6.80;;;4.00;;
61358;SDS011;47228;46.762;23.598;2022-11-21T14:05:36;7.60;;;4.80;;
61358;SDS011;47228;46.762;23.598;2022-11-21T14:08:11;10.40;;;5.40;;
61358;SDS011;47228;46.762;23.598;2022-11-21T14:10:45;9.40;;;5.80;;
61358;SDS011;47228;46.762;23.598;2022-11-21T14:16:07;11.20;;;6.70;;
61358;SDS011;47228;46.762;23.598;2022-11-21T14:18:45;10.00;;;6.80;;
61358;SDS011;47228;46.762;23.598;2022-11-21T14:21:18;12.70;;;7.50;;
61358;SDS011;47228;46.762;23.598;2022-11-21T14:23:49;11.70;;;7.20;;
61358;SDS011;47228;46.762;23.598;2022-11-21T14:26:18;10.30;;;6.70;;
61358;SDS011;47228;46.762;23.598;2022-11-21T14:28:47;11.80;;;7.30;;
61358;SDS011;47228;46.762;23.598;2022-11-21T14:31:15;10.00;;;6.90;;
61358;SDS011;47228;46.762;23.598;2022-11-21T14:33:44;10.50;;;7.30;;
61358;SDS011;47228;46.762;23.598;2022-11-21T14:41:36;12.60;;;7.70;;
61358;SDS011;47228;46.762;23.598;2022-11-21T14:44:13;12.90;;;8.30;;
61358;SDS011;47228;46.762;23.598;2022-11-21T14:46:43;11.40;;;7.80;;
61358;SDS011;47228;46.762;23.598;2022-11-21T14:54:21;14.70;;;8.80;;
61358;SDS011;47228;46.762;23.598;2022-11-21T14:57:03;13.10;;;9.00;;
61358;SDS011;47228;46.762;23.598;2022-11-21T15:02:09;14.30;;;8.90;;
61358;SDS011;47228;46.762;23.598;2022-11-21T15:04:39;12.20;;;8.60;;
61358;SDS011;47228;46.762;23.598;2022-11-21T15:07:22;14.00;;;8.70;;
61358;SDS011;47228;46.762;23.598;2022-11-21T15:09:58;13.50;;;9.00;;
61358;SDS011;47228;46.762;23.598;2022-11-21T15:18:03;12.30;;;7.90;;
61358;SDS011;47228;46.762;23.598;2022-11-21T15:23:33;11.90;;;7.90;;
61358;SDS011;47228;46.762;23.598;2022-11-21T15:26:05;12.30;;;7.50;;
61358;SDS011;47228;46.762;23.598;2022-11-21T15:28:33;9.90;;;6.80;;
61358;SDS011;47228;46.762;23.598;2022-11-21T15:31:14;11.30;;;7.10;;
61358;SDS011;47228;46.762;23.598;2022-11-21T15:33:52;10.30;;;7.00;;
61358;SDS011;47228;46.762;23.598;2022-11-21T15:39:50;10.50;;;7.00;;
61358;SDS011;47228;46.762;23.598;2022-11-21T15:45:01;11.40;;;7.20;;
61358;SDS011;47228;46.762;23.598;2022-11-21T15:47:47;10.80;;;6.70;;
61358;SDS011;47228;46.762;23.598;2022-11-21T15:50:15;13.70;;;8.60;;
61358;SDS011;47228;46.762;23.598;2022-11-21T15:52:48;13.10;;;8.00;;
61358;SDS011;47228;46.762;23.598;2022-11-21T15:55:18;13.90;;;8.00;;
61358;SDS011;47228;46.762;23.598;2022-11-21T15:57:48;11.70;;;8.00;;
61358;SDS011;47228;46.762;23.598;2022-11-21T16:00:16;14.00;;;8.10;;
61358;SDS011;47228;46.762;23.598;2022-11-21T16:02:45;12.90;;;7.50;;
61358;SDS011;47228;46.762;23.598;2022-11-21T16:05:14;11.70;;;7.80;;
61358;SDS011;47228;46.762;23.598;2022-11-21T16:07:42;13.90;;;8.90;;
61358;SDS011;47228;46.762;23.598;2022-11-21T16:10:10;15.10;;;9.60;;
61358;SDS011;47228;46.762;23.598;2022-11-21T16:12:50;14.40;;;9.40;;
61358;SDS011;47228;46.762;23.598;2022-11-21T16:15:18;18.90;;;9.70;;
61358;SDS011;47228;46.762;23.598;2022-11-21T16:17:46;17.40;;;9.80;;
61358;SDS011;47228;46.762;23.598;2022-11-21T16:20:14;14.80;;;9.80;;
61358;SDS011;47228;46.762;23.598;2022-11-21T16:22:42;18.30;;;9.80;;
61358;SDS011;47228;46.762;23.598;2022-11-21T16:25:14;14.80;;;10.10;;
61358;SDS011;47228;46.762;23.598;2022-11-21T16:27:42;16.40;;;10.30;;
61358;SDS011;47228;46.762;23.598;2022-11-21T16:30:10;16.50;;;10.10;;
61358;SDS011;47228;46.762;23.598;2022-11-21T16:32:39;17.00;;;10.40;;
61358;SDS011;47228;46.762;23.598;2022-11-21T16:35:07;14.20;;;10.10;;
61358;SDS011;47228;46.762;23.598;2022-11-21T16:37:35;19.80;;;12.10;;
61358;SDS011;47228;46.762;23.598;2022-11-21T16:40:03;20.70;;;12.30;;
61358;SDS011;47228;46.762;23.598;2022-11-21T16:42:31;19.30;;;12.40;;
61358;SDS011;47228;46.762;23.598;2022-11-21T16:44:59;19.80;;;11.30;;
61358;SDS011;47228;46.762;23.598;2022-11-21T16:47:27;18.40;;;11.40;;
61358;SDS011;47228;46.762;23.598;2022-11-21T16:49:55;17.80;;;11.50;;
61358;SDS011;47228;46.762;23.598;2022-11-21T16:52:23;15.90;;;10.60;;
61358;SDS011;47228;46.762;23.598;2022-11-21T16:54:52;19.60;;;11.50;;
61358;SDS011;47228;46.762;23.598;2022-11-21T16:57:19;20.60;;;12.50;;
61358;SDS011;47228;46.762;23.598;2022-11-21T16:59:47;21.20;;;12.70;;
61358;SDS011;47228;46.762;23.598;2022-11-21T17:02:16;20.70;;;11.80;;
61358;SDS011;47228;46.762;23.598;2022-11-21T17:04:44;20.00;;;11.00;;
61358;SDS011;47228;46.762;23.598;2022-11-21T17:07:13;18.90;;;11.00;;
61358;SDS011;47228;46.762;23.598;2022-11-21T17:09:41;17.40;;;9.60;;
61358;SDS011;47228;46.762;23.598;2022-11-21T17:12:09;17.20;;;10.10;;
61358;SDS011;47228;46.762;23.598;2022-11-21T17:14:37;15.80;;;10.20;;
61358;SDS011;47228;46.762;23.598;2022-11-21T17:17:05;14.10;;;9.60;;
61358;SDS011;47228;46.762;23.598;2022-11-21T17:19:32;17.10;;;10.00;;
61358;SDS011;47228;46.762;23.598;2022-11-21T17:22:00;13.70;;;9.40;;
61358;SDS011;47228;46.762;23.598;2022-11-21T17:24:28;17.30;;;11.30;;
61358;SDS011;47228;46.762;23.598;2022-11-21T17:26:57;21.10;;;11.60;;
61358;SDS011;47228;46.762;23.598;2022-11-21T17:29:28;25.50;;;12.70;;
61358;SDS011;47228;46.762;23.598;2022-11-21T17:31:56;24.70;;;12.50;;
61358;SDS011;47228;46.762;23.598;2022-11-21T17:34:24;21.70;;;13.80;;
61358;SDS011;47228;46.762;23.598;2022-11-21T17:36:59;25.40;;;13.60;;
61358;SDS011;47228;46.762;23.598;2022-11-21T17:39:27;22.50;;;13.70;;
61358;SDS011;47228;46.762;23.598;2022-11-21T17:41:56;23.30;;;13.30;;
61358;SDS011;47228;46.762;23.598;2022-11-21T17:44:28;21.90;;;13.50;;
61358;SDS011;47228;46.762;23.598;2022-11-21T17:46:56;23.90;;;15.20;;
61358;SDS011;47228;46.762;23.598;2022-11-21T17:49:25;20.80;;;14.70;;
61358;SDS011;47228;46.762;23.598;2022-11-21T17:51:56;20.90;;;13.90;;
61358;SDS011;47228;46.762;23.598;2022-11-21T17:54:24;21.40;;;14.00;;
61358;SDS011;47228;46.762;23.598;2022-11-21T17:56:52;23.20;;;13.80;;
61358;SDS011;47228;46.762;23.598;2022-11-21T17:59:23;19.80;;;12.70;;
61358;SDS011;47228;46.762;23.598;2022-11-21T18:01:51;19.30;;;12.70;;
61358;SDS011;47228;46.762;23.598;2022-11-21T18:04:20;20.20;;;12.60;;
61358;SDS011;47228;46.762;23.598;2022-11-21T18:06:48;19.30;;;13.20;;
61358;SDS011;47228;46.762;23.598;2022-11-21T18:09:16;19.00;;;11.90;;
61358;SDS011;47228;46.762;23.598;2022-11-21T18:11:44;13.50;;;8.60;;
61358;SDS011;47228;46.762;23.598;2022-11-21T18:14:12;13.50;;;8.90;;
61358;SDS011;47228;46.762;23.598;2022-11-21T18:16:40;11.10;;;7.60;;
61358;SDS011;47228;46.762;23.598;2022-11-21T18:20:19;13.10;;;8.40;;
61358;SDS011;47228;46.762;23.598;2022-11-21T18:22:47;9.40;;;5.50;;
61358;SDS011;47228;46.762;23.598;2022-11-21T18:25:15;8.60;;;5.40;;
61358;SDS011;47228;46.762;23.598;2022-11-21T18:27:43;8.60;;;5.50;;
61358;SDS011;47228;46.762;23.598;2022-11-21T18:30:20;9.10;;;5.90;;
61358;SDS011;47228;46.762;23.598;2022-11-21T18:32:48;9.70;;;6.30;;
61358;SDS011;47228;46.762;23.598;2022-11-21T18:35:16;10.50;;;6.30;;
61358;SDS011;47228;46.762;23.598;2022-11-21T18:37:44;9.70;;;6.10;;
61358;SDS011;47228;46.762;23.598;2022-11-21T18:40:13;11.70;;;6.70;;
61358;SDS011;47228;46.762;23.598;2022-11-21T18:42:41;9.30;;;6.20;;
61358;SDS011;47228;46.762;23.598;2022-11-21T18:45:09;9.10;;;5.40;;
61358;SDS011;47228;46.762;23.598;2022-11-21T18:47:37;10.00;;;5.90;;
61358;SDS011;47228;46.762;23.598;2022-11-21T18:50:06;9.50;;;5.30;;
61358;SDS011;47228;46.762;23.598;2022-11-21T18:52:34;9.60;;;5.20;;
61358;SDS011;47228;46.762;23.598;2022-11-21T18:55:07;10.60;;;5.90;;
61358;SDS011;47228;46.762;23.598;2022-11-21T18:57:35;9.40;;;5.90;;
61358;SDS011;47228;46.762;23.598;2022-11-21T19:00:03;9.40;;;5.60;;
61358;SDS011;47228;46.762;23.598;2022-11-21T19:02:32;9.10;;;6.60;;
61358;SDS011;47228;46.762;23.598;2022-11-21T19:04:59;10.80;;;6.30;;
61358;SDS011;47228;46.762;23.598;2022-11-21T19:07:27;10.80;;;6.20;;
61358;SDS011;47228;46.762;23.598;2022-11-21T19:09:55;10.00;;;6.40;;
61358;SDS011;47228;46.762;23.598;2022-11-21T19:12:43;9.80;;;6.60;;
61358;SDS011;47228;46.762;23.598;2022-11-21T19:15:11;12.20;;;7.00;;
61358;SDS011;47228;46.762;23.598;2022-11-21T19:17:39;10.00;;;6.70;;
61358;SDS011;47228;46.762;23.598;2022-11-21T19:20:07;12.00;;;7.30;;
61358;SDS011;47228;46.762;23.598;2022-11-21T19:22:35;11.40;;;6.60;;
61358;SDS011;47228;46.762;23.598;2022-11-21T19:25:03;12.50;;;6.70;;
61358;SDS011;47228;46.762;23.598;2022-11-21T19:27:31;11.50;;;7.10;;
61358;SDS011;47228;46.762;23.598;2022-11-21T19:29:59;11.20;;;7.30;;
61358;SDS011;47228;46.762;23.598;2022-11-21T19:32:27;12.80;;;7.10;;
61358;SDS011;47228;46.762;23.598;2022-11-21T19:34:56;12.30;;;7.80;;
61358;SDS011;47228;46.762;23.598;2022-11-21T19:37:24;11.50;;;7.30;;
61358;SDS011;47228;46.762;23.598;2022-11-21T19:39:52;10.30;;;7.40;;
61358;SDS011;47228;46.762;23.598;2022-11-21T19:42:20;14.10;;;9.20;;
61358;SDS011;47228;46.762;23.598;2022-11-21T19:44:48;14.10;;;8.00;;
61358;SDS011;47228;46.762;23.598;2022-11-21T19:47:16;13.50;;;8.60;;
61358;SDS011;47228;46.762;23.598;2022-11-21T19:49:44;13.30;;;8.40;;
61358;SDS011;47228;46.762;23.598;2022-11-21T19:52:11;12.40;;;8.20;;
61358;SDS011;47228;46.762;23.598;2022-11-21T19:54:40;14.60;;;9.40;;
61358;SDS011;47228;46.762;23.598;2022-11-21T19:57:08;17.60;;;10.50;;
61358;SDS011;47228;46.762;23.598;2022-11-21T19:59:40;15.00;;;9.50;;
61358;SDS011;47228;46.762;23.598;2022-11-21T20:02:17;19.00;;;10.60;;
61358;SDS011;47228;46.762;23.598;2022-11-21T20:04:48;18.10;;;10.70;;
61358;SDS011;47228;46.762;23.598;2022-11-21T20:07:15;20.30;;;11.40;;
61358;SDS011;47228;46.762;23.598;2022-11-21T20:09:43;18.20;;;11.70;;
61358;SDS011;47228;46.762;23.598;2022-11-21T20:12:11;19.50;;;11.60;;
61358;SDS011;47228;46.762;23.598;2022-11-21T20:14:39;20.60;;;11.20;;
61358;SDS011;47228;46.762;23.598;2022-11-21T20:17:07;16.40;;;10.30;;
61358;SDS011;47228;46.762;23.598;2022-11-21T20:19:35;16.90;;;10.50;;
61358;SDS011;47228;46.762;23.598;2022-11-21T20:22:03;14.00;;;9.50;;
61358;SDS011;47228;46.762;23.598;2022-11-21T20:24:31;17.80;;;9.90;;
61358;SDS011;47228;46.762;23.598;2022-11-21T20:29:32;15.60;;;9.80;;
61358;SDS011;47228;46.762;23.598;2022-11-21T20:32:00;16.80;;;10.60;;
61358;SDS011;47228;46.762;23.598;2022-11-21T20:34:28;14.00;;;9.10;;
61358;SDS011;47228;46.762;23.598;2022-11-21T20:36:57;14.70;;;9.40;;
61358;SDS011;47228;46.762;23.598;2022-11-21T20:39:27;15.30;;;9.30;;
61358;SDS011;47228;46.762;23.598;2022-11-21T20:41:58;16.50;;;10.30;;
61358;SDS011;47228;46.762;23.598;2022-11-21T20:44:26;17.70;;;11.00;;
61358;SDS011;47228;46.762;23.598;2022-11-21T20:47:14;17.30;;;10.90;;
61358;SDS011;47228;46.762;23.598;2022-11-21T20:49:45;18.30;;;11.90;;
61358;SDS011;47228;46.762;23.598;2022-11-21T20:52:12;19.70;;;13.30;;
61358;SDS011;47228;46.762;23.598;2022-11-21T20:55:00;21.00;;;13.20;;
61358;SDS011;47228;46.762;23.598;2022-11-21T20:57:28;21.60;;;13.50;;
61358;SDS011;47228;46.762;23.598;2022-11-21T20:59:56;22.90;;;13.90;;
61358;SDS011;47228;46.762;23.598;2022-11-21T21:02:24;20.80;;;12.50;;
61358;SDS011;47228;46.762;23.598;2022-11-21T21:04:52;21.40;;;13.40;;
61358;SDS011;47228;46.762;23.598;2022-11-21T21:07:20;21.20;;;13.40;;
61358;SDS011;47228;46.762;23.598;2022-11-21T21:09:48;21.60;;;14.50;;
61358;SDS011;47228;46.762;23.598;2022-11-21T21:12:16;22.40;;;13.50;;
61358;SDS011;47228;46.762;23.598;2022-11-21T21:14:44;21.70;;;14.90;;
61358;SDS011;47228;46.762;23.598;2022-11-21T21:17:12;23.70;;;15.60;;
61358;SDS011;47228;46.762;23.598;2022-11-21T21:19:40;22.10;;;14.10;;
61358;SDS011;47228;46.762;23.598;2022-11-21T21:22:08;28.30;;;16.90;;
61358;SDS011;47228;46.762;23.598;2022-11-21T21:24:36;27.80;;;17.30;;
61358;SDS011;47228;46.762;23.598;2022-11-21T21:27:04;27.50;;;17.30;;
61358;SDS011;47228;46.762;23.598;2022-11-21T21:29:32;25.50;;;16.30;;
61358;SDS011;47228;46.762;23.598;2022-11-21T21:32:00;30.60;;;19.00;;
61358;SDS011;47228;46.762;23.598;2022-11-21T21:34:28;24.00;;;16.10;;
61358;SDS011;47228;46.762;23.598;2022-11-21T21:36:56;22.60;;;15.70;;
61358;SDS011;47228;46.762;23.598;2022-11-21T21:39:25;23.20;;;15.40;;
61358;SDS011;47228;46.762;23.598;2022-11-21T21:41:54;26.40;;;16.30;;
61358;SDS011;47228;46.762;23.598;2022-11-21T21:44:21;26.10;;;16.30;;
61358;SDS011;47228;46.762;23.598;2022-11-21T21:46:56;22.10;;;15.30;;
61358;SDS011;47228;46.762;23.598;2022-11-21T21:49:24;26.30;;;15.50;;
61358;SDS011;47228;46.762;23.598;2022-11-21T21:51:52;24.40;;;15.90;;
61358;SDS011;47228;46.762;23.598;2022-11-21T21:54:20;23.50;;;15.30;;
61358;SDS011;47228;46.762;23.598;2022-11-21T21:56:48;24.50;;;15.20;;
61358;SDS011;47228;46.762;23.598;2022-11-21T21:59:16;25.40;;;15.60;;
61358;SDS011;47228;46.762;23.598;2022-11-21T22:01:46;27.20;;;15.30;;
61358;SDS011;47228;46.762;23.598;2022-11-21T22:04:14;27.30;;;15.80;;
61358;SDS011;47228;46.762;23.598;2022-11-21T22:06:42;24.30;;;15.80;;
61358;SDS011;47228;46.762;23.598;2022-11-21T22:09:09;26.50;;;16.20;;
61358;SDS011;47228;46.762;23.598;2022-11-21T22:11:37;23.80;;;16.40;;
61358;SDS011;47228;46.762;23.598;2022-11-21T22:14:09;22.70;;;14.20;;
61358;SDS011;47228;46.762;23.598;2022-11-21T22:16:39;25.10;;;14.80;;
61358;SDS011;47228;46.762;23.598;2022-11-21T22:19:08;24.40;;;15.80;;
61358;SDS011;47228;46.762;23.598;2022-11-21T22:21:36;23.70;;;15.50;;
61358;SDS011;47228;46.762;23.598;2022-11-21T22:24:12;25.80;;;15.80;;
61358;SDS011;47228;46.762;23.598;2022-11-21T22:26:57;25.60;;;14.80;;
61358;SDS011;47228;46.762;23.598;2022-11-21T22:29:25;24.60;;;15.30;;
61358;SDS011;47228;46.762;23.598;2022-11-21T22:31:53;27.20;;;16.90;;
61358;SDS011;47228;46.762;23.598;2022-11-21T22:34:21;26.50;;;16.30;;
61358;SDS011;47228;46.762;23.598;2022-11-21T22:36:50;27.50;;;16.00;;
61358;SDS011;47228;46.762;23.598;2022-11-21T22:39:18;24.70;;;16.80;;
61358;SDS011;47228;46.762;23.598;2022-11-21T22:41:47;27.20;;;18.10;;
61358;SDS011;47228;46.762;23.598;2022-11-21T22:44:15;25.80;;;16.50;;
61358;SDS011;47228;46.762;23.598;2022-11-21T22:46:42;25.50;;;16.60;;
61358;SDS011;47228;46.762;23.598;2022-11-21T22:49:10;25.90;;;17.20;;
61358;SDS011;47228;46.762;23.598;2022-11-21T22:51:38;27.20;;;17.20;;
61358;SDS011;47228;46.762;23.598;2022-11-21T22:54:06;23.10;;;15.90;;
61358;SDS011;47228;46.762;23.598;2022-11-21T22:56:34;22.20;;;14.60;;
61358;SDS011;47228;46.762;23.598;2022-11-21T22:59:02;25.60;;;16.20;;
61358;SDS011;47228;46.762;23.598;2022-11-21T23:01:30;25.00;;;16.20;;
61358;SDS011;47228;46.762;23.598;2022-11-21T23:03:59;23.60;;;15.70;;
61358;SDS011;47228;46.762;23.598;2022-11-21T23:06:27;23.00;;;15.80;;
61358;SDS011;47228;46.762;23.598;2022-11-21T23:08:56;22.90;;;15.40;;
61358;SDS011;47228;46.762;23.598;2022-11-21T23:11:25;22.70;;;15.70;;
61358;SDS011;47228;46.762;23.598;2022-11-21T23:13:55;24.60;;;15.10;;
61358;SDS011;47228;46.762;23.598;2022-11-21T23:16:33;25.40;;;15.30;;
61358;SDS011;47228;46.762;23.598;2022-11-21T23:19:01;22.70;;;16.00;;
61358;SDS011;47228;46.762;23.598;2022-11-21T23:21:29;24.60;;;16.70;;
61358;SDS011;47228;46.762;23.598;2022-11-21T23:23:57;27.60;;;17.80;;
61358;SDS011;47228;46.762;23.598;2022-11-21T23:26:25;27.10;;;17.80;;
61358;SDS011;47228;46.762;23.598;2022-11-21T23:28:53;27.80;;;18.70;;
61358;SDS011;47228;46.762;23.598;2022-11-21T23:31:20;26.20;;;17.10;;
61358;SDS011;47228;46.762;23.598;2022-11-21T23:33:48;26.30;;;18.00;;
61358;SDS011;47228;46.762;23.598;2022-11-21T23:36:16;29.00;;;20.00;;
61358;SDS011;47228;46.762;23.598;2022-11-21T23:38:44;27.20;;;17.80;;
61358;SDS011;47228;46.762;23.598;2022-11-21T23:41:12;28.60;;;18.70;;
61358;SDS011;47228;46.762;23.598;2022-11-21T23:43:40;28.90;;;17.80;;
61358;SDS011;47228;46.762;23.598;2022-11-21T23:46:08;29.30;;;18.30;;
61358;SDS011;47228;46.762;23.598;2022-11-21T23:48:35;25.30;;;17.30;;
61358;SDS011;47228;46.762;23.598;2022-11-21T23:51:03;26.50;;;18.50;;
61358;SDS011;47228;46.762;23.598;2022-11-21T23:53:31;28.70;;;18.90;;
61358;SDS011;47228;46.762;23.598;2022-11-21T23:55:59;28.50;;;18.90;;
61358;SDS011;47228;46.762;23.598;2022-11-21T23:58:27;25.50;;;17.20;;
